Time;durP1;ratioP1;P1;durP2;ratioP2;P2;SDS_P1;SDS_P2;PMS_P1;PMS_P2;Temp;Humidity;BMP_temperature;BMP_pressure;BME280_temperature;BME280_humidity;BME280_pressure;Samples;Min_cycle;Max_cycle;Signal;HPM_P1;HPM_P2
2023/07/11 00:02:16;;;;;;;59.83;44.42;;;;;;;24.64;48.75;93771.47;4989049;28;20483;-90
2023/07/11 00:04:41;;;;;;;54.83;42.33;;;;;;;24.63;48.74;93776.25;4993875;28;20026;-90
2023/07/11 00:07:07;;;;;;;60.95;42.60;;;;;;;24.63;48.85;93775.50;5009477;28;20507;-91
2023/07/11 00:09:32;;;;;;;58.40;42.90;;;;;;;24.64;48.88;93779.75;5005973;28;20599;-90
2023/07/11 00:11:57;;;;;;;53.58;40.83;;;;;;;24.62;48.98;93774.03;5010072;28;20037;-90
2023/07/11 00:14:23;;;;;;;57.33;40.67;;;;;;;24.62;48.88;93783.06;4990556;28;20042;-91
2023/07/11 00:16:49;;;;;;;50.97;37.38;;;;;;;24.61;48.92;93776.03;4979792;28;20041;-91
2023/07/11 00:19:15;;;;;;;57.42;42.22;;;;;;;24.62;48.86;93771.25;4977250;28;20044;-90
2023/07/11 00:21:41;;;;;;;52.78;40.83;;;;;;;24.60;48.74;93766.28;5009382;28;20033;-90
2023/07/11 00:24:06;;;;;;;52.92;38.65;;;;;;;24.59;48.72;93771.06;5022618;28;20050;-90
2023/07/11 00:26:32;;;;;;;57.22;42.00;;;;;;;24.58;48.85;93772.34;5013497;28;20116;-91
2023/07/11 00:29:14;;;;;;;54.65;39.88;;;;;;;24.56;48.93;93774.91;5013222;28;20049;-90
2023/07/11 00:31:39;;;;;;;49.30;36.58;;;;;;;24.59;48.84;93770.31;5009102;28;20530;-90
2023/07/11 00:34:05;;;;;;;54.20;39.20;;;;;;;24.57;48.56;93773.63;5012709;28;20038;-90
2023/07/11 00:36:30;;;;;;;53.05;39.38;;;;;;;24.56;48.69;93772.13;5013370;28;20034;-91
2023/07/11 00:38:55;;;;;;;51.55;39.28;;;;;;;24.56;48.92;93774.91;4992778;28;20095;-90
2023/07/11 00:41:21;;;;;;;44.85;34.78;;;;;;;24.57;48.85;93778.41;5009073;28;20046;-90
2023/07/11 00:43:46;;;;;;;50.17;37.45;;;;;;;24.56;48.79;93774.16;5013191;28;20044;-90
2023/07/11 00:46:14;;;;;;;49.92;34.65;;;;;;;24.55;48.98;93775.44;4988695;28;20041;-91
2023/07/11 00:48:43;;;;;;;49.80;39.65;;;;;;;24.54;48.79;93777.47;4977215;28;20040;-91
2023/07/11 00:51:09;;;;;;;52.00;38.60;;;;;;;24.54;49.02;93774.69;5008707;28;20109;-91
2023/07/11 00:53:34;;;;;;;48.35;35.08;;;;;;;24.53;49.02;93766.97;5004428;28;20084;-91
2023/07/11 00:56:01;;;;;;;53.00;38.83;;;;;;;24.52;49.08;93765.47;5010429;28;20033;-91
2023/07/11 00:58:27;;;;;;;52.75;38.40;;;;;;;24.53;48.99;93766.97;5010526;28;20033;-90
2023/07/11 01:00:52;;;;;;;44.95;32.85;;;;;;;24.53;48.78;93762.16;5008683;28;20133;-91
2023/07/11 01:03:17;;;;;;;46.42;35.72;;;;;;;24.53;48.99;93759.41;5011368;28;20454;-91
2023/07/11 01:05:43;;;;;;;46.80;35.10;;;;;;;24.51;49.01;93766.75;5012616;28;20554;-91
2023/07/11 01:08:09;;;;;;;52.85;36.33;;;;;;;24.50;48.99;93762.50;4990284;28;20048;-91
2023/07/11 01:10:35;;;;;;;46.50;34.15;;;;;;;24.51;49.01;93764.72;5032037;28;20041;-91
2023/07/11 01:13:01;;;;;;;46.40;35.15;;;;;;;24.50;48.95;93763.25;4998599;28;20034;-90
2023/07/11 01:15:26;;;;;;;45.63;34.67;;;;;;;24.49;48.93;93756.25;4991411;28;20068;-89
2023/07/11 01:17:51;;;;;;;42.65;32.92;;;;;;;24.48;49.02;93757.53;5022875;28;20037;-90
2023/07/11 01:20:17;;;;;;;47.97;35.45;;;;;;;24.50;49.08;93754.97;4995279;28;20408;-90
2023/07/11 01:22:43;;;;;;;48.45;36.58;;;;;;;24.49;49.11;93738.91;4989924;28;20544;-90
2023/07/11 01:25:10;;;;;;;43.35;32.33;;;;;;;24.48;48.99;93748.50;5012092;28;20037;-91
2023/07/11 01:27:36;;;;;;;49.05;36.30;;;;;;;24.48;48.97;93752.00;5011948;28;20575;-90
2023/07/11 01:30:03;;;;;;;46.67;34.90;;;;;;;24.46;49.07;93749.06;5024893;28;20089;-91
2023/07/11 01:32:29;;;;;;;47.58;35.40;;;;;;;24.48;48.98;93759.53;5013327;28;20041;-91
2023/07/11 01:34:54;;;;;;;39.40;31.30;;;;;;;24.48;49.11;93745.72;5031923;28;20612;-90
2023/07/11 01:37:19;;;;;;;43.72;32.88;;;;;;;24.47;49.01;93738.72;5011447;28;20037;-90
2023/07/11 01:39:45;;;;;;;41.03;31.25;;;;;;;24.47;49.12;93744.97;5010553;28;20041;-90
2023/07/11 01:42:10;;;;;;;45.20;32.95;;;;;;;24.46;49.05;93746.28;5027504;28;20538;-91
2023/07/11 01:44:36;;;;;;;45.50;33.15;;;;;;;24.46;49.19;93734.50;5011486;28;20556;-91
2023/07/11 01:47:02;;;;;;;44.30;33.58;;;;;;;24.45;49.20;93742.03;4988405;28;20559;-90
2023/07/11 01:49:27;;;;;;;42.65;30.88;;;;;;;24.46;49.28;93728.97;5007879;28;20072;-91
2023/07/11 01:52:05;;;;;;;42.60;31.73;;;;;;;24.44;49.05;93732.28;5008461;28;20041;-91
2023/07/11 01:54:30;;;;;;;38.33;28.67;;;;;;;24.45;49.22;93736.53;5011886;28;20040;-91
2023/07/11 01:56:56;;;;;;;45.38;33.78;;;;;;;24.43;49.11;93730.78;5013000;28;20118;-91
2023/07/11 01:59:21;;;;;;;45.53;32.70;;;;;;;24.44;49.20;93726.75;5000682;28;20041;-90
2023/07/11 02:01:47;;;;;;;39.30;31.80;;;;;;;24.43;49.18;93724.53;5006109;28;20041;-90
2023/07/11 02:04:12;;;;;;;42.55;32.70;;;;;;;24.43;49.05;93727.28;5010209;28;20400;-91
2023/07/11 02:06:38;;;;;;;43.05;32.33;;;;;;;24.42;49.15;93725.81;5027746;28;20495;-90
2023/07/11 02:09:03;;;;;;;43.85;31.80;;;;;;;24.43;49.09;93728.03;5028262;28;20037;-90
2023/07/11 02:11:29;;;;;;;40.35;30.95;;;;;;;24.42;49.37;93721.03;5014524;28;20037;-90
2023/07/11 02:13:54;;;;;;;43.55;33.13;;;;;;;24.41;48.92;93722.31;5030565;28;20499;-91
2023/07/11 02:16:19;;;;;;;43.55;32.30;;;;;;;24.40;49.11;93718.06;4990415;28;20527;-91
2023/07/11 02:18:46;;;;;;;41.30;31.33;;;;;;;24.42;49.21;93717.53;4975425;28;20042;-90
2023/07/11 02:21:11;;;;;;;41.30;30.65;;;;;;;24.41;49.28;93716.03;4979859;28;20044;-90
2023/07/11 02:23:37;;;;;;;40.13;30.35;;;;;;;24.43;49.31;93721.75;4988097;28;20045;-91
2023/07/11 02:26:03;;;;;;;34.47;26.08;;;;;;;24.41;49.37;93719.53;4990838;28;20448;-91
2023/07/11 02:28:28;;;;;;;41.13;30.45;;;;;;;24.40;49.26;93720.81;5007363;28;20480;-91
2023/07/11 02:30:54;;;;;;;39.55;29.90;;;;;;;24.40;49.46;93706.25;5023773;28;20092;-91
2023/07/11 02:33:20;;;;;;;43.65;31.00;;;;;;;24.38;49.23;93704.03;5032946;28;20159;-90
2023/07/11 02:35:45;;;;;;;34.08;28.92;;;;;;;24.39;49.27;93710.31;5014663;28;20114;-90
2023/07/11 02:38:10;;;;;;;37.92;30.13;;;;;;;24.40;49.31;93714.56;4999762;28;20084;-90
2023/07/11 02:40:36;;;;;;;34.83;25.88;;;;;;;24.40;49.44;93717.31;5009542;28;20038;-90
2023/07/11 02:43:01;;;;;;;39.33;29.85;;;;;;;24.40;49.40;93714.56;4990147;28;20173;-90
2023/07/11 02:45:27;;;;;;;37.60;26.55;;;;;;;24.40;49.14;93723.59;4989864;28;20037;-90
2023/07/11 02:47:52;;;;;;;37.55;29.17;;;;;;;24.39;49.32;93718.59;5018282;28;20037;-90
2023/07/11 02:50:18;;;;;;;39.38;28.00;;;;;;;24.38;49.44;93715.09;5026057;28;20044;-90
2023/07/11 02:52:43;;;;;;;37.22;28.40;;;;;;;24.38;49.39;93717.13;5006355;28;20038;-91
2023/07/11 02:55:09;;;;;;;35.78;27.10;;;;;;;24.39;49.16;93718.59;4993537;28;20040;-90
2023/07/11 02:57:36;;;;;;;34.92;26.85;;;;;;;24.38;49.35;93714.34;5017902;28;20109;-91
2023/07/11 03:00:02;;;;;;;35.03;26.67;;;;;;;24.37;49.25;93710.84;4995897;28;20037;-90
2023/07/11 03:02:28;;;;;;;35.85;27.27;;;;;;;24.38;49.24;93722.66;4992961;28;20049;-90
2023/07/11 03:04:53;;;;;;;30.83;25.00;;;;;;;24.38;49.31;93719.88;5006514;28;20030;-91
2023/07/11 03:07:19;;;;;;;34.20;26.23;;;;;;;24.37;49.33;93719.13;4976466;28;20054;-91
2023/07/11 03:09:44;;;;;;;32.10;27.05;;;;;;;24.36;49.30;93714.16;4989816;28;20041;-91
2023/07/11 03:12:09;;;;;;;33.40;26.05;;;;;;;24.36;49.47;93719.69;4990452;28;20037;-90
2023/07/11 03:14:37;;;;;;;32.22;24.70;;;;;;;24.38;49.33;93708.81;4988749;28;20038;-90
2023/07/11 03:17:02;;;;;;;36.88;27.40;;;;;;;24.36;49.49;93719.69;5030586;28;20052;-91
2023/07/11 03:19:28;;;;;;;34.67;26.17;;;;;;;24.36;49.52;93711.41;5046811;28;20554;-89
2023/07/11 03:21:53;;;;;;;31.98;24.23;;;;;;;24.34;49.33;93717.47;5017496;28;20030;-91
2023/07/11 03:24:19;;;;;;;30.63;25.08;;;;;;;24.35;49.48;93713.41;4992988;28;20034;-91
2023/07/11 03:26:45;;;;;;;35.58;25.63;;;;;;;24.36;49.34;93727.97;4994153;28;20076;-90
2023/07/11 03:29:10;;;;;;;31.55;24.20;;;;;;;24.43;50.40;93721.75;4989425;28;20045;-90
2023/07/11 03:31:35;;;;;;;26.27;16.90;;;;;;;24.36;51.06;93722.44;4996261;28;20518;-91
2023/07/11 03:34:01;;;;;;;32.47;25.83;;;;;;;24.23;52.39;93726.75;5015963;28;20041;-90
2023/07/11 03:36:26;;;;;;;30.00;18.90;;;;;;;24.12;52.96;93723.53;4997555;28;20033;-90
2023/07/11 03:38:53;;;;;;;23.05;17.73;;;;;;;23.99;53.38;93729.16;5033461;28;20037;-90
2023/07/11 03:41:18;;;;;;;42.92;33.95;;;;;;;23.92;53.86;93723.03;5015562;28;20046;-91
2023/07/11 03:43:44;;;;;;;52.42;41.92;;;;;;;23.76;54.14;93715.16;5013948;28;20140;-90
2023/07/11 03:46:09;;;;;;;449.33;238.70;;;;;;;23.69;54.48;93716.56;5031786;28;20038;-88
2023/07/11 03:48:35;;;;;;;116.10;65.82;;;;;;;23.71;54.20;93719.53;5034663;28;20029;-93
2023/07/11 03:51:01;;;;;;;52.83;32.22;;;;;;;23.63;54.32;93712.44;5010299;28;20038;-94
2023/07/11 03:53:26;;;;;;;24.83;15.25;;;;;;;23.51;54.60;93706.44;4992882;28;20040;-90
2023/07/11 03:55:52;;;;;;;28.23;12.68;;;;;;;23.42;54.98;93709.63;5002633;28;20046;-92
2023/07/11 03:58:18;;;;;;;20.80;12.77;;;;;;;23.38;54.88;93714.78;5012040;28;20475;-92
2023/07/11 04:00:46;;;;;;;18.05;11.65;;;;;;;23.41;54.79;93714.41;5003905;28;20543;-92
2023/07/11 04:03:12;;;;;;;37.50;12.85;;;;;;;23.21;55.31;93713.09;4998512;28;20739;-93
2023/07/11 04:05:37;;;;;;;34.13;14.07;;;;;;;23.14;55.63;93718.56;5006399;28;20505;-87
2023/07/11 04:08:03;;;;;;;31.55;13.82;;;;;;;23.10;55.87;93715.38;5006953;28;20048;-88
2023/07/11 04:10:31;;;;;;;27.55;12.38;;;;;;;23.20;55.39;93714.38;4982677;28;20037;-89
2023/07/11 04:12:56;;;;;;;32.15;12.43;;;;;;;23.14;55.68;93715.81;5018769;28;20479;-91
2023/07/11 04:15:21;;;;;;;41.70;13.40;;;;;;;22.97;56.17;93716.13;5020882;28;20060;-90
2023/07/11 04:17:47;;;;;;;20.25;10.80;;;;;;;22.97;55.81;93720.91;5034754;28;20617;-91
2023/07/11 04:20:12;;;;;;;35.05;14.18;;;;;;;23.03;56.30;93713.28;5037135;28;20041;-91
2023/07/11 04:22:39;;;;;;;19.10;12.43;;;;;;;22.98;56.17;93723.13;5014290;28;20474;-91
2023/07/11 04:25:05;;;;;;;39.63;14.02;;;;;;;22.93;56.68;93717.75;5011759;28;20041;-91
2023/07/11 04:27:30;;;;;;;38.60;12.63;;;;;;;22.94;56.41;93717.22;5029036;28;20041;-91
2023/07/11 04:29:57;;;;;;;26.83;13.85;;;;;;;22.98;56.22;93716.88;5006341;28;20037;-91
2023/07/11 04:32:22;;;;;;;36.67;14.85;;;;;;;22.89;56.47;93707.78;5015835;28;20049;-92
2023/07/11 04:34:49;;;;;;;52.00;14.00;;;;;;;22.89;56.66;93720.84;4999367;28;20103;-92
2023/07/11 04:37:15;;;;;;;50.72;13.73;;;;;;;22.86;57.26;93719.88;5012939;28;20077;-90
2023/07/11 04:39:40;;;;;;;25.63;11.73;;;;;;;22.89;57.02;93715.31;5000278;28;20395;-92
2023/07/11 04:42:06;;;;;;;36.63;15.25;;;;;;;22.73;57.51;93714.38;4997152;28;20084;-92
2023/07/11 04:44:32;;;;;;;32.60;13.00;;;;;;;22.79;57.24;93709.50;4991345;28;20427;-91
2023/07/11 04:46:58;;;;;;;41.47;14.00;;;;;;;22.67;57.22;93719.25;5001390;28;20070;-92
2023/07/11 04:49:23;;;;;;;53.47;24.85;;;;;;;22.64;57.39;93719.56;5012144;28;20049;-92
2023/07/11 04:51:50;;;;;;;33.03;17.38;;;;;;;22.77;56.94;93708.50;4989797;28;20045;-91
2023/07/11 04:54:16;;;;;;;55.72;18.83;;;;;;;22.76;57.00;93715.31;4992582;28;20484;-88
2023/07/11 04:56:42;;;;;;;27.02;14.20;;;;;;;22.79;57.12;93717.03;5001986;28;20052;-90
2023/07/11 04:59:08;;;;;;;49.15;24.98;;;;;;;22.83;56.80;93720.19;5016084;28;20676;-90
2023/07/11 05:01:33;;;;;;;40.80;16.45;;;;;;;22.79;56.86;93722.53;5013779;28;20037;-91
2023/07/11 05:03:59;;;;;;;34.22;21.45;;;;;;;22.83;56.77;93725.72;4995812;28;20033;-91
2023/07/11 05:06:24;;;;;;;39.45;23.58;;;;;;;22.90;56.48;93725.06;4995561;28;20049;-88
2023/07/11 05:08:50;;;;;;;83.80;26.33;;;;;;;22.81;56.49;93723.50;4996004;28;20496;-89
2023/07/11 05:11:17;;;;;;;36.67;17.25;;;;;;;22.74;56.92;93721.34;5011282;28;20415;-90
2023/07/11 05:13:43;;;;;;;48.22;19.75;;;;;;;22.77;56.84;93722.28;5013001;28;20040;-89
2023/07/11 05:16:16;;;;;;;84.20;24.73;;;;;;;22.80;56.58;93716.50;5008255;28;20562;-91
2023/07/11 05:18:42;;;;;;;44.08;16.23;;;;;;;22.75;56.93;93722.09;4984146;28;20038;-87
2023/07/11 05:21:09;;;;;;;29.90;12.75;;;;;;;22.81;56.45;93711.72;4993025;28;20048;-89
2023/07/11 05:23:35;;;;;;;252.35;139.07;;;;;;;22.84;56.64;93718.94;5010178;28;20034;-88
2023/07/11 05:26:00;;;;;;;120.65;57.58;;;;;;;22.89;56.10;93718.81;4998889;28;20037;-89
2023/07/11 05:28:26;;;;;;;46.70;22.13;;;;;;;22.80;56.45;93716.50;4990754;28;20097;-90
2023/07/11 05:30:52;;;;;;;34.65;18.30;;;;;;;22.84;56.88;93718.94;5000780;28;21600;-89
2023/07/11 05:33:18;;;;;;;36.53;17.50;;;;;;;22.82;57.36;93721.47;5013275;28;20030;-90
2023/07/11 05:38:42;;;;;;;26.88;14.20;;;;;;;22.82;56.89;93716.69;4996751;28;20041;-88
2023/07/11 05:41:07;;;;;;;27.25;12.95;;;;;;;22.78;57.09;93723.81;5001103;28;20037;-90
2023/07/11 05:43:34;;;;;;;25.13;12.63;;;;;;;22.77;57.51;93720.31;4979107;28;20080;-93
2023/07/11 05:45:59;;;;;;;31.95;13.70;;;;;;;22.72;57.45;93723.91;4995953;28;20049;-91
2023/07/11 05:48:24;;;;;;;27.35;13.63;;;;;;;22.72;57.38;93723.16;5012242;28;20045;-90
2023/07/11 05:50:58;;;;;;;24.65;15.00;;;;;;;22.72;57.41;93725.94;4997982;28;20415;-90
2023/07/11 05:53:24;;;;;;;18.30;12.73;;;;;;;22.73;57.25;93717.13;4977406;28;20159;-87
2023/07/11 05:55:49;;;;;;;23.20;14.55;;;;;;;22.75;57.65;93719.31;4969729;28;20613;-88
2023/07/11 05:58:17;;;;;;;42.72;20.52;;;;;;;22.71;57.67;93716.19;5009061;28;20055;-90
2023/07/11 06:00:43;;;;;;;35.47;20.50;;;;;;;22.74;57.58;93717.84;5017370;28;20048;-88
2023/07/11 06:03:08;;;;;;;60.83;41.33;;;;;;;22.83;57.74;93723.69;5008383;28;20037;-86
2023/07/11 06:05:34;;;;;;;37.47;17.23;;;;;;;22.89;58.20;93716.06;5016962;28;20060;-89
2023/07/11 06:08:00;;;;;;;24.55;17.30;;;;;;;22.99;58.16;93712.84;5004349;28;20045;-90
2023/07/11 06:10:26;;;;;;;21.83;16.50;;;;;;;23.03;57.32;93716.78;4973291;28;20041;-88
2023/07/11 06:12:51;;;;;;;36.75;23.25;;;;;;;23.13;57.27;93709.53;4986376;28;20057;-86
2023/07/11 06:15:21;;;;;;;377.42;189.55;;;;;;;23.22;57.26;93716.59;4995570;28;20053;-91
2023/07/11 06:17:46;;;;;;;42.33;23.70;;;;;;;23.27;57.55;93713.00;5003160;28;20045;-90
2023/07/11 06:20:13;;;;;;;23.70;15.73;;;;;;;23.30;57.39;93717.44;5001575;28;20514;-90
2023/07/11 06:22:40;;;;;;;18.02;11.85;;;;;;;23.26;57.09;93708.75;5018017;28;20044;-90
2023/07/11 06:25:06;;;;;;;18.73;12.52;;;;;;;23.16;56.87;93702.97;5013180;28;20091;-89
2023/07/11 06:27:32;;;;;;;16.88;11.98;;;;;;;23.17;57.22;93704.41;5010114;28;20045;-89
2023/07/11 06:29:58;;;;;;;20.58;11.75;;;;;;;23.11;57.79;93695.53;5012451;28;20060;-89
2023/07/11 06:32:23;;;;;;;19.15;12.38;;;;;;;23.15;57.54;93695.97;4982274;28;20053;-90
2023/07/11 06:34:49;;;;;;;30.15;13.95;;;;;;;23.11;57.74;93692.78;5026400;28;20022;-89
2023/07/11 06:37:14;;;;;;;19.40;13.70;;;;;;;23.17;57.47;93701.66;4999055;28;20096;-88
2023/07/11 06:39:40;;;;;;;20.98;13.93;;;;;;;23.21;57.74;93701.34;5008262;28;20091;-88
2023/07/11 06:42:06;;;;;;;571.35;337.10;;;;;;;23.22;57.29;93694.53;4988983;28;20484;-89
2023/07/11 06:44:31;;;;;;;101.78;51.22;;;;;;;23.23;57.57;93704.28;4967574;28;20038;-91
2023/07/11 06:46:56;;;;;;;112.72;53.45;;;;;;;23.31;57.69;93707.88;5023983;28;20403;-88
2023/07/11 06:49:22;;;;;;;42.90;25.23;;;;;;;23.44;57.37;93696.06;5008414;28;20506;-90
2023/07/11 06:51:51;;;;;;;44.85;26.33;;;;;;;23.45;57.39;93700.28;4993907;28;20041;-90
2023/07/11 06:54:17;;;;;;;34.67;20.27;;;;;;;23.46;57.60;93696.25;4992409;28;20041;-88
2023/07/11 06:56:42;;;;;;;29.38;18.77;;;;;;;23.55;57.51;93702.09;5019123;28;20069;-88
2023/07/11 06:59:08;;;;;;;38.60;22.58;;;;;;;23.61;57.74;93693.66;5000616;28;20042;-90
2023/07/11 07:01:33;;;;;;;141.60;101.22;;;;;;;23.63;57.27;93707.66;5021977;28;20041;-90
2023/07/11 07:04:02;;;;;;;89.00;52.50;;;;;;;23.72;57.16;93707.19;5026590;28;20387;-89
2023/07/11 07:06:28;;;;;;;60.00;33.65;;;;;;;23.79;56.76;93703.03;4990551;28;20118;-90
2023/07/11 07:08:53;;;;;;;38.17;22.52;;;;;;;23.75;56.91;93697.84;5010270;28;20118;-87
2023/07/11 07:11:19;;;;;;;34.28;20.25;;;;;;;23.82;57.27;93701.94;4990145;28;20415;-88
2023/07/11 07:13:44;;;;;;;25.05;18.02;;;;;;;23.87;56.70;93701.06;5021403;28;20048;-87
2023/07/11 07:16:10;;;;;;;30.65;21.77;;;;;;;23.84;56.50;93699.38;4998600;28;20046;-87
2023/07/11 07:18:38;;;;;;;35.05;19.98;;;;;;;23.92;56.46;93700.94;4996781;28;20385;-88
2023/07/11 07:21:03;;;;;;;36.65;18.80;;;;;;;23.91;56.03;93696.69;4970533;28;20074;-90
2023/07/11 07:23:29;;;;;;;44.65;23.33;;;;;;;23.94;56.09;93694.88;4974419;28;20092;-90
2023/07/11 07:25:58;;;;;;;24.15;15.80;;;;;;;23.96;56.24;93702.63;5020432;28;20037;-87
2023/07/11 07:28:23;;;;;;;28.73;15.55;;;;;;;23.93;56.89;93693.38;4992272;28;20076;-87
2023/07/11 07:30:49;;;;;;;36.67;19.77;;;;;;;24.02;56.22;93690.16;5029241;28;20487;-89
2023/07/11 07:33:15;;;;;;;23.95;16.15;;;;;;;24.10;56.31;93681.91;5028981;28;20459;-89
2023/07/11 07:35:43;;;;;;;44.88;25.73;;;;;;;24.14;55.92;93690.59;5011616;28;20068;-89
2023/07/11 07:38:10;;;;;;;39.45;22.33;;;;;;;24.21;55.67;93690.66;5010271;28;20100;-89
2023/07/11 07:40:36;;;;;;;60.95;36.75;;;;;;;24.29;55.66;93689.97;4993990;28;20038;-89
2023/07/11 07:43:02;;;;;;;117.53;44.83;;;;;;;24.26;55.31;93683.50;4975054;28;20034;-91
2023/07/11 07:45:27;;;;;;;44.95;22.25;;;;;;;24.29;55.41;93682.41;4994668;28;20054;-89
2023/07/11 07:47:54;;;;;;;46.60;26.35;;;;;;;24.25;55.49;93688.28;4968824;28;20621;-87
2023/07/11 07:50:19;;;;;;;28.58;19.20;;;;;;;24.16;55.17;93688.78;4972537;28;20533;-87
2023/07/11 07:52:45;;;;;;;45.40;22.35;;;;;;;24.23;55.22;93690.09;4972158;28;20034;-89
2023/07/11 07:55:11;;;;;;;37.78;20.35;;;;;;;24.21;55.46;93679.59;4994671;28;20072;-87
2023/07/11 07:57:36;;;;;;;37.83;22.48;;;;;;;24.24;55.27;93684.06;4983638;28;20049;-87
2023/07/11 08:00:02;;;;;;;50.70;26.27;;;;;;;24.32;55.43;93681.34;5009942;28;20048;-88
2023/07/11 08:02:31;;;;;;;42.40;22.95;;;;;;;24.38;54.22;93672.91;4976212;28;20041;-88
2023/07/11 08:04:57;;;;;;;56.83;32.78;;;;;;;24.35;54.78;93679.50;4993025;28;20156;-88
2023/07/11 08:07:24;;;;;;;54.28;31.92;;;;;;;24.41;54.69;93672.56;4991148;28;20054;-89
2023/07/11 08:09:49;;;;;;;63.85;34.83;;;;;;;24.41;54.47;93677.34;4973850;28;20389;-89
2023/07/11 08:12:16;;;;;;;22.30;16.42;;;;;;;24.48;53.95;93673.88;5001843;28;20045;-90
2023/07/11 08:14:41;;;;;;;28.88;16.42;;;;;;;24.54;53.74;93675.19;5008784;28;20037;-89
2023/07/11 08:17:07;;;;;;;37.22;22.90;;;;;;;24.62;53.12;93678.00;4995746;28;20056;-90
2023/07/11 08:19:33;;;;;;;85.97;48.15;;;;;;;24.53;53.94;93668.19;4991593;28;20041;-88
2023/07/11 08:21:59;;;;;;;35.08;22.83;;;;;;;24.63;53.91;93656.63;5014332;28;20037;-87
2023/07/11 08:24:24;;;;;;;83.50;50.53;;;;;;;24.58;54.01;93670.06;4990719;28;20263;-87
2023/07/11 08:26:50;;;;;;;90.97;49.63;;;;;;;24.52;54.09;93663.94;4995562;28;20042;-88
2023/07/11 08:29:17;;;;;;;87.03;49.67;;;;;;;24.54;53.83;93666.91;4990700;28;20665;-87
2023/07/11 08:31:43;;;;;;;59.95;38.83;;;;;;;24.63;53.64;93664.94;4999086;28;20649;-89
2023/07/11 08:34:08;;;;;;;76.32;40.58;;;;;;;24.66;53.54;93672.88;5017766;28;20032;-89
2023/07/11 08:36:33;;;;;;;56.92;34.28;;;;;;;24.64;53.49;93674.72;5034351;28;20033;-89
2023/07/11 08:38:59;;;;;;;61.72;37.90;;;;;;;24.66;53.78;93670.13;5001858;28;20037;-88
2023/07/11 08:41:37;;;;;;;82.32;44.28;;;;;;;24.62;53.76;93655.91;4986135;28;20381;-88
2023/07/11 08:44:05;;;;;;;76.88;48.13;;;;;;;24.54;53.86;93663.41;5004015;28;20185;-89
2023/07/11 08:46:39;;;;;;;87.10;49.67;;;;;;;24.55;53.77;93671.16;5012196;28;20079;-88
2023/07/11 08:49:07;;;;;;;70.75;40.38;;;;;;;24.58;53.38;93672.09;5003636;28;20029;-87
2023/07/11 08:51:37;;;;;;;75.53;45.63;;;;;;;24.57;53.52;93671.34;5022890;28;20044;-88
2023/07/11 08:54:05;;;;;;;;;;;;;;;24.58;53.63;93663.81;5009329;28;20041;-87
2023/07/11 08:56:36;;;;;;;167.35;97.82;;;;;;;24.59;53.39;93674.31;4987732;28;20421;-88
2023/07/11 08:59:03;;;;;;;201.93;111.68;;;;;;;24.58;53.77;93661.03;5022315;28;20049;-87
2023/07/11 09:01:56;;;;;;;171.15;98.68;;;;;;;24.61;53.32;93662.72;4988159;28;20096;-87
2023/07/11 09:04:22;;;;;;;181.95;98.38;;;;;;;24.64;53.49;93656.09;4994512;28;20096;-89
2023/07/11 09:06:52;;;;;;;190.55;98.18;;;;;;;24.67;53.33;93673.63;4978604;28;20038;-89
2023/07/11 09:09:18;;;;;;;;;;;;;;;24.63;53.51;93660.13;4990901;28;20509;-90
2023/07/11 09:11:53;;;;;;;197.35;98.55;;;;;;;24.63;53.57;93648.34;4996495;28;19929;-87
2023/07/11 09:14:37;;;;;;;241.30;126.78;;;;;;;24.71;53.58;93649.84;4993536;28;20049;-89
2023/07/11 09:17:14;;;;;;;317.33;187.18;;;;;;;24.73;53.50;93658.31;5006163;28;20053;-89
2023/07/11 09:20:00;;;;;;;350.48;208.45;;;;;;;24.74;53.34;93651.50;5003035;28;20072;-90
2023/07/11 09:22:43;;;;;;;337.63;205.32;;;;;;;24.73;53.26;93646.53;4984623;28;20041;-89
2023/07/11 09:25:19;;;;;;;303.05;182.82;;;;;;;24.75;53.31;93650.22;4986421;28;20041;-89
2023/07/11 09:27:44;;;;;;;286.80;180.68;;;;;;;24.79;53.10;93649.88;4974514;28;20586;-90
2023/07/11 09:30:19;;;;;;;280.83;174.27;;;;;;;24.79;53.21;93642.31;5018150;28;20034;-91
2023/07/11 09:32:46;;;;;;;256.75;162.23;;;;;;;24.81;53.33;93648.03;5014311;28;20037;-88
2023/07/11 09:35:27;;;;;;;300.75;175.73;;;;;;;24.76;53.41;93651.72;5012656;28;20044;-89
2023/07/11 09:38:07;;;;;;;290.70;175.02;;;;;;;24.78;53.04;93642.88;5000263;28;20037;-87
2023/07/11 09:40:36;;;;;;;301.58;188.25;;;;;;;24.78;53.20;93645.63;4982158;28;20366;-90
2023/07/11 09:43:01;;;;;;;364.05;207.95;;;;;;;24.82;53.02;93648.78;5001820;28;20120;-89
2023/07/11 09:45:35;;;;;;;379.70;210.13;;;;;;;24.78;53.16;93642.88;4982187;28;20049;-90
2023/07/11 09:48:14;;;;;;;401.13;230.90;;;;;;;24.80;53.07;93640.28;5013252;28;20072;-90
2023/07/11 09:51:01;;;;;;;481.13;289.85;;;;;;;24.75;53.45;93646.72;5010183;28;20049;-91
2023/07/11 09:53:28;;;;;;;399.38;243.45;;;;;;;24.84;53.21;93641.44;5008609;28;20289;-91
2023/07/11 09:55:56;;;;;;;411.52;244.50;;;;;;;24.80;53.24;93634.78;5029327;28;20045;-89
2023/07/11 09:58:21;;;;;;;359.45;223.65;;;;;;;24.84;53.05;93632.38;4993801;28;20049;-89
2023/07/11 10:00:50;;;;;;;391.98;237.77;;;;;;;24.84;53.00;93638.66;4982306;28;20478;-88
2023/07/11 10:03:19;;;;;;;337.10;218.90;;;;;;;24.78;53.07;93635.31;4992072;28;20149;-89
2023/07/11 10:05:46;;;;;;;355.07;222.50;;;;;;;24.84;52.98;93635.16;5010793;28;20045;-90
2023/07/11 10:08:17;;;;;;;368.30;226.63;;;;;;;24.80;52.75;93635.50;5008559;28;20271;-90
2023/07/11 10:10:51;;;;;;;367.73;233.80;;;;;;;24.81;53.21;93636.25;4998001;28;20044;-91
2023/07/11 10:13:17;;;;;;;337.95;215.93;;;;;;;24.85;52.88;93631.84;5012822;28;20041;-87
2023/07/11 10:15:43;;;;;;;322.35;201.98;;;;;;;24.80;52.75;93626.47;5012030;28;20062;-87
2023/07/11 10:18:21;;;;;;;297.65;190.20;;;;;;;24.83;52.95;93631.66;5044355;28;20040;-85
2023/07/11 10:20:49;;;;;;;311.27;200.35;;;;;;;24.81;52.83;93625.94;4994158;28;20022;-88
2023/07/11 10:23:16;;;;;;;298.13;195.70;;;;;;;24.84;52.73;93618.56;4989710;28;20454;-90
2023/07/11 10:25:43;;;;;;;281.73;173.98;;;;;;;24.85;52.92;93618.03;5005076;28;20068;-86
2023/07/11 10:28:30;;;;;;;287.90;197.43;;;;;;;24.81;52.77;93612.09;4990230;28;20171;-87
2023/07/11 10:30:56;;;;;;;280.33;183.13;;;;;;;24.87;52.81;93615.44;4992475;28;20037;-88
2023/07/11 10:33:29;;;;;;;295.67;191.20;;;;;;;24.81;52.90;93616.91;5004331;28;20087;-86
2023/07/11 10:36:02;;;;;;;271.83;166.95;;;;;;;24.83;52.88;93619.84;4991643;28;20042;-86
2023/07/11 10:38:33;;;;;;;272.90;173.02;;;;;;;24.88;52.78;93605.13;4992886;28;20045;-87
2023/07/11 10:41:00;;;;;;;238.10;151.48;;;;;;;24.84;52.82;93610.28;5006557;28;20034;-87
2023/07/11 10:43:28;;;;;;;262.98;162.20;;;;;;;24.91;52.79;93609.53;4971643;28;20042;-86
2023/07/11 10:46:02;;;;;;;249.90;160.52;;;;;;;24.83;53.00;93603.25;4970027;28;20388;-87
2023/07/11 10:48:34;;;;;;;251.18;168.82;;;;;;;24.86;52.78;93602.16;4981176;28;20136;-88
2023/07/11 10:51:02;;;;;;;255.30;164.88;;;;;;;24.82;53.19;93594.22;5025757;28;20033;-87
2023/07/11 10:53:45;;;;;;;254.32;177.88;;;;;;;24.84;52.93;93599.94;5007942;28;20519;-86
2023/07/11 10:56:30;;;;;;;276.80;180.20;;;;;;;24.85;52.97;93593.13;5009520;28;20465;-87
2023/07/11 10:58:56;;;;;;;269.27;161.13;;;;;;;24.84;53.28;93591.66;5027176;28;20042;-86
2023/07/11 11:01:49;;;;;;;284.17;168.25;;;;;;;24.85;52.97;93589.63;5006821;28;20087;-86
2023/07/11 11:04:14;;;;;;;270.98;167.02;;;;;;;24.89;52.89;93590.00;5019651;28;20064;-88
2023/07/11 11:07:01;;;;;;;268.60;170.65;;;;;;;24.83;53.05;93589.44;5043677;28;20123;-89
2023/07/11 11:09:57;;;;;;;272.80;166.80;;;;;;;24.86;53.22;93586.31;5025451;28;20119;-89
2023/07/11 11:12:54;;;;;;;271.98;174.57;;;;;;;24.84;53.00;93585.38;5026290;28;20049;-87
2023/07/11 11:15:42;;;;;;;272.90;170.27;;;;;;;24.83;53.04;93581.13;5016916;28;20046;-89
2023/07/11 11:18:34;;;;;;;375.15;247.77;;;;;;;24.87;52.97;93568.44;5018320;28;20041;-88
2023/07/11 11:21:16;;;;;;;357.27;241.15;;;;;;;24.92;52.84;93561.22;4995020;28;20044;-89